createdAt,value
2017-04-24T00:01:05.179Z,2.18
2017-04-24T00:02:15.165Z,2.16
2017-04-24T00:03:25.108Z,2.12
2017-04-24T00:04:35.363Z,2.01
2017-04-24T00:05:45.620Z,2.12
2017-04-24T00:06:55.872Z,2.03
2017-04-24T00:08:06.186Z,2.03
2017-04-24T00:09:16.452Z,2.01
2017-04-24T00:10:26.710Z,2.05
2017-04-24T00:11:36.651Z,2.03
2017-04-24T00:12:46.896Z,2.07
2017-04-24T00:13:57.204Z,2.03
2017-04-24T00:15:07.146Z,2.04
2017-04-24T00:16:17.399Z,2.01
2017-04-24T00:17:27.348Z,2.01
2017-04-24T00:18:37.607Z,1.98
2017-04-24T00:19:47.930Z,1.88
2017-04-24T00:20:58.201Z,1.82
2017-04-24T00:22:08.482Z,1.89
2017-04-24T00:23:18.736Z,1.85
2017-04-24T00:24:28.684Z,1.86
2017-04-24T00:25:38.690Z,1.71
2017-04-24T00:26:48.954Z,1.74
2017-04-24T00:27:59.207Z,1.84
2017-04-24T00:29:09.155Z,1.82
2017-04-24T00:30:19.414Z,1.74
2017-04-24T00:31:29.714Z,1.76
2017-04-24T00:32:39.978Z,1.82
2017-04-24T00:33:50.242Z,1.71
2017-04-24T00:35:00.495Z,1.74
2017-04-24T00:36:10.434Z,1.68
2017-04-24T00:37:20.735Z,1.74
2017-04-24T00:38:30.989Z,1.61
2017-04-24T00:39:41.248Z,1.66
2017-04-24T00:40:51.508Z,1.66
2017-04-24T00:42:01.762Z,1.63
2017-04-24T00:43:11.752Z,1.64
2017-04-24T00:44:22.015Z,1.61
2017-04-24T00:45:32.270Z,1.63
2017-04-24T00:46:42.208Z,1.71
2017-04-24T00:47:52.467Z,1.61
2017-04-24T00:49:04.821Z,1.63
2017-04-24T00:50:15.085Z,1.63
2017-04-24T00:51:25.036Z,1.58
2017-04-24T00:52:34.985Z,1.6
2017-04-24T00:53:45.248Z,1.6
2017-04-24T00:54:55.558Z,1.57
2017-04-24T00:56:05.817Z,1.56
2017-04-24T00:57:16.068Z,1.53
2017-04-24T00:58:26.321Z,1.53
2017-04-24T00:59:36.573Z,1.49
2017-04-24T01:00:46.878Z,1.58
2017-04-24T01:01:57.143Z,1.58
2017-04-24T01:03:07.400Z,1.48
2017-04-24T01:04:17.339Z,1.56
2017-04-24T01:05:27.347Z,1.48
2017-04-24T01:06:37.654Z,1.45
2017-04-24T01:07:47.916Z,1.31
2017-04-24T01:08:58.171Z,1.45
2017-04-24T01:10:07.797Z,1.34
2017-04-24T01:11:17.424Z,1.38
2017-04-24T01:12:27.796Z,1.32
2017-04-24T01:13:38.049Z,1.28
2017-04-24T01:14:47.989Z,1.31
2017-04-24T01:15:58.238Z,1.31
2017-04-24T01:17:08.493Z,1.32
2017-04-24T01:18:18.481Z,1.32
2017-04-24T01:19:28.735Z,1.43
2017-04-24T01:20:38.684Z,1.43
2017-04-24T01:21:48.939Z,1.32
2017-04-24T01:22:58.887Z,1.34
2017-04-24T01:24:09.198Z,1.32
2017-04-24T01:25:19.150Z,1.43
2017-04-24T01:26:29.406Z,1.38
2017-04-24T01:27:39.660Z,1.34
2017-04-24T01:28:49.914Z,1.38
2017-04-24T01:30:00.235Z,1.39
2017-04-24T01:31:10.484Z,1.38
2017-04-24T01:32:20.743Z,1.36
2017-04-24T01:33:31.011Z,1.3
2017-04-24T01:34:41.002Z,1.22
2017-04-24T01:35:51.311Z,1.32
2017-04-24T01:37:01.577Z,1.34
2017-04-24T01:38:11.834Z,1.36
2017-04-24T01:39:22.100Z,1.4
2017-04-24T01:40:32.352Z,1.36
2017-04-24T01:41:42.662Z,1.34
2017-04-24T01:42:52.915Z,1.39
2017-04-24T01:44:03.169Z,1.42
2017-04-24T01:45:13.431Z,1.34
2017-04-24T01:46:23.395Z,1.43
2017-04-24T01:47:33.698Z,1.4
2017-04-24T01:48:43.954Z,1.38
2017-04-24T01:49:54.223Z,1.38
2017-04-24T01:51:04.163Z,1.38
2017-04-24T01:52:14.420Z,1.4
2017-04-24T01:53:24.748Z,1.36
2017-04-24T01:54:34.997Z,1.36
2017-04-24T01:55:45.251Z,1.32
2017-04-24T01:56:55.503Z,1.43
2017-04-24T01:58:05.456Z,1.39
2017-04-24T01:59:15.446Z,1.4
2017-04-24T02:00:25.388Z,1.39
2017-04-24T02:01:35.326Z,1.34
2017-04-24T02:02:45.581Z,1.34
2017-04-24T02:03:55.836Z,1.31
2017-04-24T02:05:06.194Z,1.48
2017-04-24T02:06:16.133Z,1.43
2017-04-24T02:07:26.392Z,1.46
2017-04-24T02:08:36.680Z,1.43
2017-04-24T02:09:46.621Z,1.52
2017-04-24T02:10:56.924Z,1.5
2017-04-24T02:12:06.869Z,1.52
2017-04-24T02:13:17.132Z,1.5
2017-04-24T02:14:27.390Z,1.53
2017-04-24T02:15:37.644Z,1.6
2017-04-24T02:16:47.946Z,1.7
2017-04-24T02:17:58.204Z,1.66
2017-04-24T02:19:08.476Z,1.68
2017-04-24T02:20:18.417Z,1.76
2017-04-24T02:21:28.677Z,1.75
2017-04-24T02:22:38.679Z,1.75
2017-04-24T02:23:48.935Z,1.7
2017-04-24T02:24:59.197Z,1.68
2017-04-24T02:26:09.455Z,1.74
2017-04-24T02:27:19.397Z,1.81
2017-04-24T02:28:29.735Z,1.7
2017-04-24T02:29:39.985Z,1.68
2017-04-24T02:30:49.926Z,1.7
2017-04-24T02:32:00.179Z,1.7
2017-04-24T02:33:10.116Z,1.64
2017-04-24T02:34:20.420Z,1.67
2017-04-24T02:35:30.678Z,1.68
2017-04-24T02:36:40.964Z,1.67
2017-04-24T02:37:50.910Z,1.75
2017-04-24T02:39:00.849Z,1.66
2017-04-24T02:40:10.833Z,1.64
2017-04-24T02:41:20.775Z,1.71
2017-04-24T02:42:31.027Z,1.67
2017-04-24T02:43:40.978Z,1.64
2017-04-24T02:44:51.233Z,1.74
2017-04-24T02:46:01.536Z,1.7
2017-04-24T02:47:11.794Z,1.66
2017-04-24T02:48:22.051Z,1.66
2017-04-24T02:49:32.310Z,1.71
2017-04-24T02:50:42.569Z,1.64
2017-04-24T02:51:52.885Z,1.71
2017-04-24T02:53:03.135Z,1.67
2017-04-24T02:54:13.391Z,1.6
2017-04-24T02:55:23.360Z,1.66
2017-04-24T02:56:33.648Z,1.7
2017-04-24T02:57:43.960Z,1.56
2017-04-24T02:58:54.223Z,1.63
2017-04-24T03:00:04.489Z,1.57
2017-04-24T03:01:14.118Z,1.53
2017-04-24T03:02:24.385Z,1.53
2017-04-24T03:03:34.696Z,1.53
2017-04-24T03:04:44.945Z,1.53
2017-04-24T03:05:55.213Z,1.5
2017-04-24T03:07:05.466Z,1.49
2017-04-24T03:08:15.720Z,1.52
2017-04-24T03:09:26.031Z,1.49
2017-04-24T03:10:36.292Z,1.52
2017-04-24T03:11:46.542Z,1.52
2017-04-24T03:12:56.803Z,1.46
2017-04-24T03:14:07.063Z,1.48
2017-04-24T03:15:16.115Z,1.52
2017-04-24T03:16:26.376Z,1.4
2017-04-24T03:17:36.638Z,1.48
2017-04-24T03:18:46.891Z,1.48
2017-04-24T03:19:57.139Z,1.48
2017-04-24T03:21:07.444Z,1.48
2017-04-24T03:22:17.694Z,1.48
2017-04-24T03:23:27.953Z,1.42
2017-04-24T03:24:38.212Z,1.34
2017-04-24T03:25:48.467Z,1.45
2017-04-24T03:26:58.769Z,1.42
2017-04-24T03:28:09.029Z,1.36
2017-04-24T03:29:18.972Z,1.38
2017-04-24T03:30:29.223Z,1.31
2017-04-24T03:31:39.473Z,1.34
2017-04-24T03:32:49.776Z,1.39
2017-04-24T03:34:00.034Z,1.38
2017-04-24T03:35:09.986Z,1.34
2017-04-24T03:36:19.930Z,1.38
2017-04-24T03:37:29.874Z,1.34
2017-04-24T03:38:40.183Z,1.38
2017-04-24T03:39:50.120Z,1.36
2017-04-24T03:41:00.381Z,1.34
2017-04-24T03:42:10.320Z,1.43
2017-04-24T03:43:20.278Z,1.46
2017-04-24T03:44:30.589Z,1.39
2017-04-24T03:45:40.836Z,1.45
2017-04-24T03:46:50.772Z,1.39
2017-04-24T03:48:01.020Z,1.4
2017-04-24T03:49:10.968Z,1.48
2017-04-24T03:50:21.270Z,1.48
2017-04-24T03:51:31.522Z,1.49
2017-04-24T03:52:41.473Z,1.52
2017-04-24T03:53:51.732Z,1.5
2017-04-24T03:55:01.982Z,1.57
2017-04-24T03:56:11.967Z,1.57
2017-04-24T03:57:21.906Z,1.52
2017-04-24T03:58:32.156Z,1.57
2017-04-24T03:59:42.096Z,1.57
2017-04-24T04:00:52.352Z,1.56
2017-04-24T04:02:02.656Z,1.6
2017-04-24T04:03:12.907Z,1.7
2017-04-24T04:04:22.846Z,1.67
2017-04-24T04:05:33.107Z,1.64
2017-04-24T04:06:43.375Z,1.67
2017-04-24T04:07:53.682Z,1.64
2017-04-24T04:09:03.941Z,1.66
2017-04-24T04:10:13.886Z,1.61
2017-04-24T04:11:24.148Z,1.66
2017-04-24T04:12:34.412Z,1.64
2017-04-24T04:13:44.728Z,1.63
2017-04-24T04:14:54.980Z,1.71
2017-04-24T04:16:05.250Z,1.63
2017-04-24T04:17:15.535Z,1.64
2017-04-24T04:18:25.831Z,1.53
2017-04-24T04:19:36.152Z,1.53
2017-04-24T04:20:46.411Z,1.48
2017-04-24T04:21:56.665Z,1.5
2017-04-24T04:23:06.923Z,1.39
2017-04-24T04:24:17.181Z,1.31
2017-04-24T04:25:27.486Z,1.31
2017-04-24T04:26:37.742Z,1.34
2017-04-24T04:27:47.676Z,1.32
2017-04-24T04:28:57.932Z,1.32
2017-04-24T04:30:08.206Z,1.21
2017-04-24T04:31:17.878Z,1.2
2017-04-24T04:32:28.131Z,1.14
2017-04-24T04:33:38.384Z,1.07
2017-04-24T04:34:48.027Z,1.09
2017-04-24T04:35:58.281Z,1.1
2017-04-24T04:37:07.959Z,1.09
2017-04-24T04:38:17.899Z,1.06
2017-04-24T04:39:28.158Z,1.12
2017-04-24T04:40:38.408Z,1.02
2017-04-24T04:41:48.662Z,1.06
2017-04-24T04:42:58.973Z,0.99
2017-04-24T04:44:09.236Z,0.94
2017-04-24T04:45:19.489Z,0.89
2017-04-24T04:46:29.435Z,0.99
2017-04-24T04:47:39.696Z,0.85
2017-04-24T04:48:49.999Z,0.82
2017-04-24T04:49:59.936Z,0.89
2017-04-24T04:51:10.189Z,0.89
2017-04-24T04:52:20.448Z,0.84
2017-04-24T04:53:30.726Z,0.84
2017-04-24T04:54:41.035Z,0.88
2017-04-24T04:55:51.288Z,0.77
2017-04-24T04:57:01.551Z,0.77
2017-04-24T04:58:11.803Z,0.86
2017-04-24T04:59:22.058Z,0.81
2017-04-24T05:00:32.392Z,0.88
2017-04-24T05:01:42.682Z,0.82
2017-04-24T05:02:52.949Z,0.88
2017-04-24T05:04:03.222Z,0.89
2017-04-24T05:05:13.475Z,0.81
2017-04-24T05:06:23.769Z,0.82
2017-04-24T05:07:34.021Z,0.78
2017-04-24T05:08:44.275Z,0.88
2017-04-24T05:09:54.523Z,0.85
2017-04-24T05:11:04.779Z,0.84
2017-04-24T05:12:14.760Z,0.82
2017-04-24T05:13:25.030Z,0.82
2017-04-24T05:14:35.287Z,0.88
2017-04-24T05:15:45.536Z,0.84
2017-04-24T05:16:55.789Z,0.78
2017-04-24T05:18:05.781Z,0.82
2017-04-24T05:19:15.718Z,0.81
2017-04-24T05:20:25.972Z,0.84
2017-04-24T05:21:36.231Z,0.78
2017-04-24T05:22:46.494Z,0.82
2017-04-24T05:23:56.481Z,0.76
2017-04-24T05:25:06.426Z,0.77
2017-04-24T05:26:16.366Z,0.68
2017-04-24T05:27:26.613Z,0.68
2017-04-24T05:28:36.879Z,0.68
2017-04-24T05:29:47.185Z,0.78
2017-04-24T05:30:57.123Z,0.74
2017-04-24T05:32:07.373Z,0.71
2017-04-24T05:33:17.018Z,0.73
2017-04-24T05:34:27.271Z,0.76
2017-04-24T05:35:37.570Z,0.76
2017-04-24T05:36:47.824Z,0.71
2017-04-24T05:37:57.764Z,0.77
2017-04-24T05:39:08.016Z,0.81
2017-04-24T05:40:18.266Z,0.88
2017-04-24T05:41:28.577Z,0.86
2017-04-24T05:42:38.830Z,0.86
2017-04-24T05:43:49.088Z,0.91
2017-04-24T05:44:59.350Z,0.88
2017-04-24T05:46:09.597Z,0.85
2017-04-24T05:47:19.901Z,0.91
2017-04-24T05:48:30.159Z,0.94
2017-04-24T05:49:40.410Z,0.94
2017-04-24T05:50:50.348Z,0.86
2017-04-24T05:52:00.288Z,0.89
2017-04-24T05:53:09.982Z,0.88
2017-04-24T05:54:20.263Z,0.91
2017-04-24T05:55:30.521Z,0.81
2017-04-24T05:56:40.773Z,0.88
2017-04-24T05:57:51.029Z,0.81
2017-04-24T05:59:01.336Z,0.88
2017-04-24T06:00:10.969Z,0.86
2017-04-24T06:01:21.220Z,0.81
2017-04-24T06:02:30.839Z,0.88
2017-04-24T06:03:41.100Z,0.82
2017-04-24T06:04:51.093Z,0.81
2017-04-24T06:06:01.342Z,0.85
2017-04-24T06:07:11.617Z,0.88
2017-04-24T06:08:21.888Z,0.88
2017-04-24T06:09:32.145Z,0.84
2017-04-24T06:10:42.453Z,0.88
2017-04-24T06:11:52.711Z,0.88
2017-04-24T06:13:02.958Z,0.88
2017-04-24T06:14:13.216Z,0.85
2017-04-24T06:15:22.863Z,0.82
2017-04-24T06:16:33.166Z,0.77
2017-04-24T06:17:43.416Z,0.78
2017-04-24T06:18:53.680Z,0.81
2017-04-24T06:20:03.931Z,0.77
2017-04-24T06:21:13.868Z,0.73
2017-04-24T06:22:24.175Z,0.71
2017-04-24T06:23:34.114Z,0.67
2017-04-24T06:24:44.370Z,0.68
2017-04-24T06:25:54.619Z,0.67
2017-04-24T06:27:04.872Z,0.73
2017-04-24T06:28:15.179Z,0.58
2017-04-24T06:29:25.117Z,0.61
2017-04-24T06:30:35.373Z,0.64
2017-04-24T06:31:45.631Z,0.64
2017-04-24T06:32:55.907Z,0.49
2017-04-24T06:34:06.221Z,0.51
2017-04-24T06:35:16.160Z,0.48
2017-04-24T06:36:26.409Z,0.51
2017-04-24T06:37:36.667Z,0.55
2017-04-24T06:38:46.916Z,0.49
2017-04-24T06:39:59.230Z,0.45
2017-04-24T06:41:09.165Z,0.47
2017-04-24T06:42:19.420Z,0.44
2017-04-24T06:43:29.669Z,0.36
2017-04-24T06:44:39.926Z,0.39
2017-04-24T06:45:49.916Z,0.37
2017-04-24T06:47:00.182Z,0.36
2017-04-24T06:48:10.456Z,0.34
2017-04-24T06:49:20.414Z,0.39
2017-04-24T06:50:30.674Z,0.39
2017-04-24T06:51:40.661Z,0.45
2017-04-24T06:52:50.910Z,0.37
2017-04-24T06:54:01.171Z,0.37
2017-04-24T06:55:11.419Z,0.4
2017-04-24T06:56:21.358Z,0.33
2017-04-24T06:57:31.659Z,0.4
2017-04-24T06:58:41.908Z,0.37
2017-04-24T06:59:51.842Z,0.4
2017-04-24T07:01:02.086Z,0.44
2017-04-24T07:02:12.331Z,0.37
2017-04-24T07:03:22.639Z,0.48
2017-04-24T07:04:32.267Z,0.45
2017-04-24T07:05:42.517Z,0.33
2017-04-24T07:06:52.460Z,0.51
2017-04-24T07:08:02.394Z,0.44
2017-04-24T07:09:12.692Z,0.42
2017-04-24T07:10:22.957Z,0.49
2017-04-24T07:11:33.214Z,0.44
2017-04-24T07:12:43.466Z,0.45
2017-04-24T07:13:53.721Z,0.42
2017-04-24T07:15:04.026Z,0.44
2017-04-24T07:16:14.271Z,0.44
2017-04-24T07:17:24.523Z,0.4
2017-04-24T07:18:34.470Z,0.37
2017-04-24T07:19:44.751Z,0.42
2017-04-24T07:20:54.741Z,0.39
2017-04-24T07:22:05.005Z,0.39
2017-04-24T07:23:14.940Z,0.48
2017-04-24T07:24:25.208Z,0.33
2017-04-24T07:25:35.469Z,0.42
2017-04-24T07:26:44.835Z,0.44
2017-04-24T07:27:55.088Z,0.45
2017-04-24T07:29:05.337Z,0.51
2017-04-24T07:30:15.585Z,0.47
2017-04-24T07:31:25.829Z,0.58
2017-04-24T07:32:36.137Z,0.51
2017-04-24T07:33:46.393Z,0.55
2017-04-24T07:34:56.648Z,0.48
2017-04-24T07:36:06.902Z,0.48
2017-04-24T07:37:17.168Z,0.49
2017-04-24T07:38:27.175Z,0.51
2017-04-24T07:39:37.105Z,0.55
2017-04-24T07:40:47.372Z,0.51
2017-04-24T07:41:57.628Z,0.61
2017-04-24T07:43:07.566Z,0.64
2017-04-24T07:44:17.239Z,0.61
2017-04-24T07:45:27.171Z,0.7
2017-04-24T07:46:37.110Z,0.67
2017-04-24T07:47:47.357Z,0.71
2017-04-24T07:48:57.607Z,0.73
2017-04-24T07:50:07.599Z,0.71
2017-04-24T07:51:17.859Z,0.77
2017-04-24T07:52:27.795Z,0.76
2017-04-24T07:53:38.048Z,0.77
2017-04-24T07:54:48.301Z,0.74
2017-04-24T07:55:58.601Z,0.81
2017-04-24T07:57:08.845Z,0.92
2017-04-24T07:58:19.101Z,0.88
2017-04-24T07:59:29.355Z,0.84
2017-04-24T08:00:39.291Z,0.82
2017-04-24T08:01:49.280Z,0.82
2017-04-24T08:02:59.531Z,0.86
2017-04-24T08:04:09.790Z,0.91
2017-04-24T08:05:19.734Z,0.94
2017-04-24T08:06:29.984Z,0.88
2017-04-24T08:07:40.217Z,0.94
2017-04-24T08:08:50.483Z,1
2017-04-24T08:10:00.738Z,1.06
2017-04-24T08:11:10.360Z,1.03
2017-04-24T08:12:20.619Z,0.99
2017-04-24T08:13:30.817Z,1.06
2017-04-24T08:14:41.075Z,1.07
2017-04-24T08:15:51.011Z,1.13
2017-04-24T08:17:01.264Z,1.1
2017-04-24T08:18:11.519Z,1.13
2017-04-24T08:19:21.819Z,1.12
2017-04-24T08:20:31.765Z,1.16
2017-04-24T08:21:41.714Z,1.21
2017-04-24T08:22:51.972Z,1.24
2017-04-24T08:24:02.232Z,1.21
2017-04-24T08:25:14.541Z,1.22
2017-04-24T08:26:24.792Z,1.25
2017-04-24T08:27:34.744Z,1.24
2017-04-24T08:28:45.001Z,1.28
2017-04-24T08:29:55.250Z,1.32
2017-04-24T08:31:05.548Z,1.22
2017-04-24T08:32:15.483Z,1.3
2017-04-24T08:33:25.111Z,1.25
2017-04-24T08:34:35.373Z,1.36
2017-04-24T08:35:45.313Z,1.34
2017-04-24T08:36:55.572Z,1.39
2017-04-24T08:38:05.509Z,1.43
2017-04-24T08:39:15.448Z,1.4
2017-04-24T08:40:25.707Z,1.32
2017-04-24T08:41:35.954Z,1.5
2017-04-24T08:42:46.208Z,1.53
2017-04-24T08:43:56.464Z,1.57
2017-04-24T08:45:06.405Z,1.49
2017-04-24T08:46:16.668Z,1.5
2017-04-24T08:47:26.610Z,1.52
2017-04-24T08:48:36.868Z,1.57
2017-04-24T08:49:47.135Z,1.64
2017-04-24T08:50:57.387Z,1.43
2017-04-24T08:52:07.633Z,1.66
2017-04-24T08:53:17.262Z,1.58
2017-04-24T08:54:27.525Z,1.63
2017-04-24T08:55:37.777Z,1.71
2017-04-24T08:56:48.030Z,1.76
2017-04-24T08:57:57.659Z,1.74
2017-04-24T08:59:07.914Z,1.74
2017-04-24T09:00:17.854Z,1.84
2017-04-24T09:01:28.401Z,1.85
2017-04-24T09:02:38.830Z,1.84
2017-04-24T09:03:49.096Z,1.95
2017-04-24T09:04:59.351Z,1.98
2017-04-24T09:06:09.610Z,2.04
2017-04-24T09:07:19.896Z,2.05
2017-04-24T09:08:30.149Z,1.98
2017-04-24T09:09:40.408Z,2.05
2017-04-24T09:10:50.660Z,2.16
2017-04-24T09:12:00.927Z,2.08
2017-04-24T09:13:10.555Z,2.18
2017-04-24T09:14:20.499Z,2.16
2017-04-24T09:15:30.761Z,2.18
2017-04-24T09:16:41.012Z,2.07
2017-04-24T09:17:51.274Z,2.1
2017-04-24T09:19:01.536Z,2.1
2017-04-24T09:20:11.785Z,2.22
2017-04-24T09:21:21.414Z,2.19
2017-04-24T09:22:31.670Z,2.28
2017-04-24T09:23:41.920Z,2.37
2017-04-24T09:24:52.169Z,2.33
2017-04-24T09:26:02.428Z,2.4
2017-04-24T09:27:12.368Z,2.41
2017-04-24T09:28:22.621Z,2.5
2017-04-24T09:29:32.879Z,2.51
2017-04-24T09:30:43.142Z,2.52
2017-04-24T09:31:53.400Z,2.58
2017-04-24T09:33:03.663Z,2.54
2017-04-24T09:34:13.606Z,2.62
2017-04-24T09:35:23.579Z,2.69
2017-04-24T09:36:33.832Z,2.72
2017-04-24T09:37:43.780Z,2.87
2017-04-24T09:38:53.411Z,2.73
2017-04-24T09:40:03.672Z,2.88
2017-04-24T09:41:13.931Z,3
2017-04-24T09:42:24.185Z,2.88
2017-04-24T09:43:34.434Z,2.91
2017-04-24T09:44:44.690Z,2.9
2017-04-24T09:45:54.976Z,2.94
2017-04-24T09:47:05.232Z,3.09
2017-04-24T09:48:15.177Z,3.11
2017-04-24T09:49:25.435Z,3.19
2017-04-24T09:50:35.701Z,3.18
2017-04-24T09:51:45.952Z,3.27
2017-04-24T09:52:56.211Z,3.31
2017-04-24T09:54:06.157Z,3.3
2017-04-24T09:55:16.406Z,3.37
2017-04-24T09:56:26.660Z,3.41
2017-04-24T09:57:36.599Z,3.37
2017-04-24T09:58:46.862Z,3.46
2017-04-24T09:59:57.112Z,3.46
2017-04-24T10:01:07.385Z,3.5
2017-04-24T10:02:17.012Z,3.52
2017-04-24T10:03:27.276Z,3.55
2017-04-24T10:04:37.529Z,3.5
2017-04-24T10:05:47.789Z,3.61
2017-04-24T10:06:57.742Z,3.64
2017-04-24T10:08:08.000Z,3.56
2017-04-24T10:09:18.284Z,3.64
2017-04-24T10:10:28.536Z,3.59
2017-04-24T10:11:38.789Z,3.61
2017-04-24T10:12:49.039Z,3.43
2017-04-24T10:13:59.289Z,3.43
2017-04-24T10:15:09.548Z,3.46
2017-04-24T10:16:19.801Z,3.46
2017-04-24T10:17:29.743Z,3.37
2017-04-24T10:18:40.001Z,3.34
2017-04-24T10:19:50.268Z,3.46
2017-04-24T10:21:00.523Z,3.52
2017-04-24T10:22:10.785Z,3.59
2017-04-24T10:23:21.045Z,3.64
2017-04-24T10:24:31.300Z,3.7
2017-04-24T10:25:41.242Z,3.63
2017-04-24T10:26:51.495Z,3.58
2017-04-24T10:28:01.759Z,3.66
2017-04-24T10:29:12.014Z,3.61
2017-04-24T10:30:21.639Z,3.63
2017-04-24T10:31:31.899Z,3.56
2017-04-24T10:32:42.157Z,3.63
2017-04-24T10:33:52.416Z,3.58
2017-04-24T10:35:02.670Z,3.61
2017-04-24T10:36:12.608Z,3.7
2017-04-24T10:37:22.859Z,3.55
2017-04-24T10:38:32.797Z,3.71
2017-04-24T10:39:43.051Z,3.73
2017-04-24T10:40:53.304Z,3.68
2017-04-24T10:42:03.552Z,3.71
2017-04-24T10:43:13.815Z,3.77
2017-04-24T10:44:24.074Z,3.74
2017-04-24T10:45:34.340Z,3.84
2017-04-24T10:46:44.275Z,3.81
2017-04-24T10:47:54.530Z,3.82
2017-04-24T10:49:04.792Z,3.78
2017-04-24T10:50:14.744Z,3.78
2017-04-24T10:51:25.003Z,3.91
2017-04-24T10:52:35.254Z,3.99
2017-04-24T10:53:45.513Z,4.12
2017-04-24T10:54:55.776Z,3.91
2017-04-24T10:56:06.028Z,3.88
2017-04-24T10:57:15.358Z,3.86
2017-04-24T10:58:25.605Z,3.84
2017-04-24T10:59:35.855Z,3.88
2017-04-24T11:00:46.114Z,4.02
2017-04-24T11:01:56.368Z,3.99
2017-04-24T11:03:06.624Z,4.1
2017-04-24T11:04:16.564Z,4.14
2017-04-24T11:05:26.832Z,4.04
2017-04-24T11:06:36.774Z,4.04
2017-04-24T11:07:46.719Z,4.03
2017-04-24T11:08:56.975Z,4.1
2017-04-24T11:10:06.921Z,3.96
2017-04-24T11:11:16.873Z,4.03
2017-04-24T11:12:27.127Z,4.02
2017-04-24T11:13:37.070Z,3.94
2017-04-24T11:14:47.328Z,3.95
2017-04-24T11:15:57.586Z,3.85
2017-04-24T11:17:07.836Z,3.84
2017-04-24T11:18:17.470Z,3.94
2017-04-24T11:19:27.738Z,3.94
2017-04-24T11:20:38.001Z,3.94
2017-04-24T11:21:48.266Z,3.82
2017-04-24T11:22:58.520Z,3.82
2017-04-24T11:24:08.465Z,3.82
2017-04-24T11:25:18.726Z,3.78
2017-04-24T11:26:28.989Z,3.81
2017-04-24T11:27:38.934Z,3.73
2017-04-24T11:28:49.193Z,3.7
2017-04-24T11:29:59.457Z,3.74
2017-04-24T11:31:09.405Z,3.67
2017-04-24T11:32:18.716Z,3.73
2017-04-24T11:33:28.660Z,3.7
2017-04-24T11:34:38.600Z,3.67
2017-04-24T11:35:48.544Z,3.7
2017-04-24T11:36:58.795Z,3.68
2017-04-24T11:38:09.047Z,3.67
2017-04-24T11:39:19.315Z,3.71
2017-04-24T11:40:29.591Z,3.56
2017-04-24T11:41:39.846Z,3.61
2017-04-24T11:42:49.786Z,3.67
2017-04-24T11:44:00.040Z,3.7
2017-04-24T11:45:09.978Z,3.82
2017-04-24T11:46:19.923Z,3.99
2017-04-24T11:47:30.180Z,3.92
2017-04-24T11:48:40.442Z,4
2017-04-24T11:49:50.401Z,3.99
2017-04-24T11:51:00.663Z,4
2017-04-24T11:52:10.915Z,4.02
2017-04-24T11:53:20.857Z,4.1
2017-04-24T11:54:31.112Z,4.03
2017-04-24T11:55:41.363Z,3.96
2017-04-24T11:56:51.615Z,4.1
2017-04-24T11:58:01.878Z,4.04
2017-04-24T11:59:11.831Z,4.12
2017-04-24T12:00:22.100Z,4.25
2017-04-24T12:01:32.364Z,4.34
2017-04-24T12:02:42.623Z,4.3
2017-04-24T12:03:52.883Z,4.36
2017-04-24T12:05:03.147Z,4.3
2017-04-24T12:06:12.775Z,4.27
2017-04-24T12:07:22.719Z,4.31
2017-04-24T12:08:32.981Z,4.28
2017-04-24T12:09:42.925Z,4.32
2017-04-24T12:10:53.178Z,4.38
2017-04-24T12:12:03.433Z,4.32
2017-04-24T12:13:12.753Z,4.12
2017-04-24T12:14:22.699Z,4.09
2017-04-24T12:15:32.961Z,4.12
2017-04-24T12:16:42.902Z,4.04
2017-04-24T12:17:52.844Z,4.03
2017-04-24T12:19:03.108Z,3.96
2017-04-24T12:20:13.360Z,4.06
2017-04-24T12:21:23.619Z,4.02
2017-04-24T12:22:33.882Z,3.92
2017-04-24T12:23:44.138Z,3.94
2017-04-24T12:24:54.078Z,4.07
2017-04-24T12:26:04.354Z,4.02
2017-04-24T12:27:14.606Z,3.96
2017-04-24T12:28:24.865Z,3.95
2017-04-24T12:29:35.119Z,4.02
2017-04-24T12:30:45.374Z,3.74
2017-04-24T12:31:55.336Z,3.77
2017-04-24T12:33:05.598Z,3.68
2017-04-24T12:34:15.536Z,3.59
2017-04-24T12:35:25.795Z,3.58
2017-04-24T12:36:36.052Z,3.64
2017-04-24T12:37:46.002Z,3.67
2017-04-24T12:38:56.268Z,3.55
2017-04-24T12:40:05.898Z,3.58
2017-04-24T12:41:15.519Z,3.55
2017-04-24T12:42:25.145Z,3.58
2017-04-24T12:43:35.090Z,3.56
2017-04-24T12:44:45.343Z,3.53
2017-04-24T12:45:55.593Z,3.61
2017-04-24T12:47:05.530Z,3.61
2017-04-24T12:48:15.472Z,3.43
2017-04-24T12:49:25.431Z,3.45
2017-04-24T12:50:35.719Z,3.43
2017-04-24T12:51:45.970Z,3.4
2017-04-24T12:52:56.221Z,3.45
2017-04-24T12:54:06.492Z,3.4
2017-04-24T12:55:16.755Z,3.33
2017-04-24T12:56:27.010Z,3.3
2017-04-24T12:57:36.947Z,3.43
2017-04-24T12:58:46.897Z,3.41
2017-04-24T12:59:57.153Z,3.36
2017-04-24T13:01:07.099Z,3.45
2017-04-24T13:02:16.726Z,3.21
2017-04-24T13:03:26.987Z,3.16
2017-04-24T13:04:37.235Z,3.31
2017-04-24T13:05:47.485Z,3.24
2017-04-24T13:06:57.737Z,3.27
2017-04-24T13:08:07.988Z,3.13
2017-04-24T13:09:17.617Z,3.12
2017-04-24T13:10:27.247Z,3.03
2017-04-24T13:11:37.199Z,3.05
2017-04-24T13:12:47.454Z,3
2017-04-24T13:13:57.709Z,3.06
2017-04-24T13:15:07.652Z,2.97
2017-04-24T13:16:17.914Z,2.97
2017-04-24T13:17:28.177Z,2.93
2017-04-24T13:18:38.438Z,2.98
2017-04-24T13:19:48.061Z,2.97
2017-04-24T13:20:58.007Z,2.95
2017-04-24T13:22:07.950Z,2.83
2017-04-24T13:23:17.891Z,2.72
2017-04-24T13:24:28.150Z,2.58
2017-04-24T13:25:38.398Z,2.55
2017-04-24T13:26:48.655Z,2.44
2017-04-24T13:27:58.605Z,2.59
2017-04-24T13:29:08.859Z,2.5
2017-04-24T13:30:17.909Z,2.37
2017-04-24T13:31:27.858Z,2.23
2017-04-24T13:32:37.822Z,2.28
2017-04-24T13:33:48.093Z,2.22
2017-04-24T13:34:58.357Z,2.22
2017-04-24T13:36:07.989Z,2.21
2017-04-24T13:37:18.241Z,2.19
2017-04-24T13:38:28.513Z,2.23
2017-04-24T13:39:38.766Z,2.32
2017-04-24T13:40:48.076Z,2.21
2017-04-24T13:41:58.012Z,2.25
2017-04-24T13:43:07.945Z,2.34
2017-04-24T13:44:18.206Z,2.28
2017-04-24T13:45:28.154Z,2.3
2017-04-24T13:46:38.406Z,2.37
2017-04-24T13:47:48.655Z,2.37
2017-04-24T13:48:58.913Z,2.5
2017-04-24T13:50:08.567Z,2.43
2017-04-24T13:51:17.563Z,2.41
2017-04-24T13:52:27.196Z,2.37
2017-04-24T13:53:37.144Z,2.43
2017-04-24T13:54:47.404Z,2.4
2017-04-24T13:55:57.673Z,2.37
2017-04-24T13:57:07.928Z,2.22
2017-04-24T13:58:17.561Z,2.22
2017-04-24T13:59:27.497Z,2.19
2017-04-24T14:00:36.815Z,2.3
2017-04-24T14:01:46.494Z,2.33
2017-04-24T14:02:55.818Z,2.19
2017-04-24T14:04:06.071Z,2.26
2017-04-24T14:05:16.006Z,2.25
2017-04-24T14:06:26.254Z,2.18
2017-04-24T14:07:36.510Z,2.18
2017-04-24T14:08:46.771Z,2.08
2017-04-24T14:09:56.710Z,2.14
2017-04-24T14:11:05.712Z,2.08
2017-04-24T14:12:15.043Z,2.12
2017-04-24T14:13:23.725Z,2.1
2017-04-24T14:14:33.040Z,2.18
2017-04-24T14:15:43.292Z,2.12
2017-04-24T14:16:53.545Z,2.08
2017-04-24T14:18:03.481Z,2.1
2017-04-24T14:19:13.420Z,2.05
2017-04-24T14:20:22.733Z,2.07
2017-04-24T14:21:32.053Z,2.01
2017-04-24T14:22:41.357Z,2.04
2017-04-24T14:23:50.665Z,1.97
2017-04-24T14:25:00.293Z,1.95
2017-04-24T14:26:10.226Z,1.93
2017-04-24T14:27:20.477Z,1.92
2017-04-24T14:28:30.731Z,1.93
2017-04-24T14:29:40.983Z,1.89
2017-04-24T14:30:51.231Z,1.92
2017-04-24T14:32:01.483Z,1.81
2017-04-24T14:33:11.761Z,1.74
2017-04-24T14:34:21.702Z,1.7
2017-04-24T14:35:31.960Z,1.75
2017-04-24T14:36:42.213Z,1.76
2017-04-24T14:37:52.462Z,1.71
2017-04-24T14:39:02.712Z,1.76
2017-04-24T14:40:12.959Z,1.7
2017-04-24T14:41:22.900Z,1.74
2017-04-24T14:42:33.158Z,1.74
2017-04-24T14:43:43.414Z,1.75
2017-04-24T14:44:53.354Z,1.74
2017-04-24T14:46:03.601Z,1.71
2017-04-24T14:47:13.858Z,1.71
2017-04-24T14:48:23.798Z,1.79
2017-04-24T14:49:34.055Z,1.67
2017-04-24T14:50:44.309Z,1.78
2017-04-24T14:51:54.559Z,1.74
2017-04-24T14:53:04.819Z,1.7
2017-04-24T14:54:14.755Z,1.82
2017-04-24T14:55:25.008Z,1.81
2017-04-24T14:56:35.259Z,1.74
2017-04-24T14:57:45.512Z,1.85
2017-04-24T14:58:55.143Z,1.84
2017-04-24T15:00:05.400Z,1.89
2017-04-24T15:01:15.018Z,1.85
2017-04-24T15:02:24.950Z,1.86
2017-04-24T15:03:35.205Z,1.89
2017-04-24T15:04:45.463Z,1.84
2017-04-24T15:05:55.725Z,1.81
2017-04-24T15:07:05.981Z,1.84
2017-04-24T15:08:16.241Z,1.84
2017-04-24T15:09:26.504Z,1.81
2017-04-24T15:10:36.757Z,1.86
2017-04-24T15:11:47.012Z,1.89
2017-04-24T15:12:57.281Z,1.85
2017-04-24T15:14:07.536Z,1.89
2017-04-24T15:15:17.472Z,1.86
2017-04-24T15:16:27.734Z,1.95
2017-04-24T15:17:37.713Z,2.01
2017-04-24T15:18:47.654Z,2.03
2017-04-24T15:19:57.901Z,1.93
2017-04-24T15:21:08.148Z,2
2017-04-24T15:22:18.398Z,1.97
2017-04-24T15:23:28.656Z,2.03
2017-04-24T15:24:38.594Z,1.93
2017-04-24T15:25:48.845Z,1.95
2017-04-24T15:26:59.099Z,2.04
2017-04-24T15:28:09.039Z,2.04
2017-04-24T15:29:18.665Z,1.98
2017-04-24T15:30:28.916Z,1.93
2017-04-24T15:31:39.211Z,1.93
2017-04-24T15:32:49.152Z,1.97
2017-04-24T15:33:59.408Z,1.95
2017-04-24T15:35:09.663Z,1.97
2017-04-24T15:36:19.599Z,1.92
2017-04-24T15:37:32.103Z,1.98